Time;durP1;ratioP1;P1;durP2;ratioP2;P2;SDS_P1;SDS_P2;PMS_P1;PMS_P2;Temp;Humidity;BMP_temperature;BMP_pressure;BME280_temperature;BME280_humidity;BME280_pressure;Samples;Min_cycle;Max_cycle;Signal;HPM_P1;HPM_P2
2021/10/03 00:01:19;;;;;;;1.05;0.70;;;;;;;18.88;67.46;99312.50;5048128;28;20065;-91
2021/10/03 00:04:04;;;;;;;1.10;0.80;;;;;;;18.87;67.40;99308.19;5045838;28;20025;-91
2021/10/03 00:06:29;;;;;;;0.85;0.77;;;;;;;18.89;67.46;99308.13;5042437;28;20061;-90
2021/10/03 00:08:56;;;;;;;1.50;0.90;;;;;;;18.89;67.67;99301.16;5031268;28;20028;-92
2021/10/03 00:11:22;;;;;;;0.88;0.70;;;;;;;18.89;67.28;99308.13;5012007;28;20033;-92
2021/10/03 00:13:48;;;;;;;1.02;0.70;;;;;;;18.89;67.76;99315.94;5045461;28;20025;-91
2021/10/03 00:16:14;;;;;;;1.00;0.70;;;;;;;18.89;67.33;99328.97;5028172;28;20030;-91
2021/10/03 00:18:40;;;;;;;1.13;0.85;;;;;;;18.88;67.30;99324.69;5030273;28;20029;-92
2021/10/03 00:21:10;;;;;;;0.80;0.70;;;;;;;18.89;67.46;99335.03;5023944;28;20016;-91
2021/10/03 03:18:12;;;;;;;1.98;0.80;;;;;;;18.84;66.51;99451.66;5158589;23;20058;-85
2021/10/03 03:27:21;;;;;;;1.67;0.70;;;;;;;18.83;66.91;99456.91;4976520;29;20050;-88
2021/10/03 03:39:52;;;;;;;2.05;0.82;;;;;;;18.80;66.51;99462.25;4977433;28;20090;-86
2021/10/03 03:42:18;;;;;;;3.88;0.90;;;;;;;18.82;66.78;99463.06;4957723;29;20027;-84
2021/10/03 04:41:08;;;;;;;1.67;0.80;;;;;;;18.80;66.10;99481.34;5136362;23;20437;-86
2021/10/03 04:43:34;;;;;;;1.05;0.70;;;;;;;18.79;65.71;99481.38;5013463;28;20054;-86
2021/10/03 04:46:00;;;;;;;1.13;0.60;;;;;;;18.79;65.84;99492.69;4965455;28;20050;-87
2021/10/03 05:13:16;;;;;;;0.90;0.60;;;;;;;18.78;65.64;99498.78;5426445;23;20560;-87
2021/10/03 05:44:25;;;;;;;2.10;0.80;;;;;;;18.78;65.33;99527.47;5013828;28;20073;-84
2021/10/03 05:46:51;;;;;;;1.67;0.70;;;;;;;18.78;65.21;99527.47;4995506;28;20084;-84
2021/10/03 05:49:16;;;;;;;0.98;0.50;;;;;;;18.77;65.18;99523.13;5009656;28;20034;-84
2021/10/03 05:51:42;;;;;;;1.95;0.80;;;;;;;18.77;64.98;99530.06;4991562;28;20049;-84
2021/10/03 05:54:08;;;;;;;1.13;0.60;;;;;;;18.78;65.06;99527.47;4975044;28;20041;-84
2021/10/03 05:56:35;;;;;;;0.98;0.60;;;;;;;18.77;65.31;99530.06;4974109;28;20034;-82
2021/10/03 05:59:01;;;;;;;1.63;0.50;;;;;;;18.77;65.11;99528.34;4975031;28;20049;-85
2021/10/03 06:01:28;;;;;;;1.20;0.43;;;;;;;18.76;65.16;99516.19;4968162;28;20034;-83
2021/10/03 06:03:55;;;;;;;1.60;0.57;;;;;;;18.78;64.98;99535.28;5002019;28;20022;-83
2021/10/03 06:06:21;;;;;;;1.45;0.60;;;;;;;18.78;64.96;99537.88;4980945;28;20027;-83
2021/10/03 06:09:04;;;;;;;1.83;0.60;;;;;;;18.79;65.17;99550.03;4999457;28;20041;-87
2021/10/03 06:18:05;;;;;;;4.03;0.70;;;;;;;18.78;65.02;99571.75;4957438;29;20070;-88
2021/10/03 06:30:36;;;;;;;12.70;3.03;;;;;;;18.90;64.04;99587.00;4949411;29;20113;-86
2021/10/03 06:33:02;;;;;;;6.65;2.38;;;;;;;18.93;63.84;99588.63;4945245;29;20537;-83
2021/10/03 06:35:29;;;;;;;9.52;2.65;;;;;;;18.95;63.88;99594.63;4947767;29;20032;-85
2021/10/03 06:37:56;;;;;;;9.55;2.53;;;;;;;18.96;63.90;99592.88;4915160;29;20103;-87
2021/10/03 06:40:22;;;;;;;7.22;2.40;;;;;;;18.97;63.88;99603.25;4916368;29;20027;-87
2021/10/03 06:42:47;;;;;;;9.38;2.63;;;;;;;18.97;63.82;99600.66;4929064;29;20036;-85
2021/10/03 06:45:13;;;;;;;10.05;2.58;;;;;;;18.97;63.58;99608.47;4912227;29;20087;-83
2021/10/03 06:47:38;;;;;;;7.30;2.08;;;;;;;18.97;63.76;99611.09;4953613;28;20040;-87
2021/10/03 06:50:10;;;;;;;9.20;2.03;;;;;;;18.99;63.73;99622.31;4984564;28;20105;-85
2021/10/03 06:52:35;;;;;;;6.38;2.17;;;;;;;18.98;63.72;99628.41;5005886;28;20033;-86
2021/10/03 06:55:01;;;;;;;7.68;2.33;;;;;;;18.98;63.35;99620.59;4972676;28;20060;-87
2021/10/03 06:57:26;;;;;;;7.72;2.22;;;;;;;18.99;63.65;99627.53;4972799;28;20042;-85
2021/10/03 06:59:51;;;;;;;5.78;1.98;;;;;;;19.01;63.67;99625.72;4986422;28;20022;-87
2021/10/03 07:02:22;;;;;;;7.28;1.95;;;;;;;19.01;63.41;99630.06;5005634;28;20478;-85
2021/10/03 07:04:48;;;;;;;5.93;1.98;;;;;;;18.99;63.65;99632.75;4973840;28;20094;-86
2021/10/03 07:07:13;;;;;;;4.75;1.80;;;;;;;19.00;63.61;99637.03;4988240;28;20061;-87
2021/10/03 07:09:39;;;;;;;9.32;2.20;;;;;;;19.01;63.36;99650.91;4993143;28;20030;-86
2021/10/03 07:12:05;;;;;;;5.07;1.95;;;;;;;19.00;63.77;99655.28;4978204;28;20022;-86
2021/10/03 07:14:30;;;;;;;5.15;1.95;;;;;;;19.00;63.71;99650.06;4989624;28;20085;-86
2021/10/03 07:16:57;;;;;;;5.30;1.83;;;;;;;19.02;63.61;99660.47;4973535;28;20494;-85
2021/10/03 07:19:22;;;;;;;6.28;2.20;;;;;;;19.02;63.46;99653.47;4988633;28;20081;-87
2021/10/03 07:28:20;;;;;;;4.57;1.42;;;;;;;19.02;63.33;99645.66;5006766;28;20177;-83
2021/10/03 07:30:46;;;;;;;2.67;1.20;;;;;;;19.04;63.39;99640.41;5001543;28;20434;-86
2021/10/03 07:33:11;;;;;;;5.18;1.92;;;;;;;19.06;63.41;99652.47;4981574;28;20034;-86
2021/10/03 07:35:36;;;;;;;5.15;1.80;;;;;;;19.06;63.24;99654.25;4966352;28;20493;-86
2021/10/03 07:38:02;;;;;;;5.10;1.73;;;;;;;19.08;63.24;99652.44;4968631;28;20030;-89
2021/10/03 07:43:13;;;;;;;8.68;1.98;;;;;;;19.12;63.83;99648.81;5066485;23;20058;-89
2021/10/03 07:45:38;;;;;;;6.72;1.50;;;;;;;19.17;64.27;99651.25;4950976;28;20122;-89
2021/10/03 07:48:04;;;;;;;8.48;2.35;;;;;;;19.27;66.06;99645.66;4963640;28;20039;-91
2021/10/03 07:50:29;;;;;;;5.30;1.33;;;;;;;19.23;66.47;99646.69;4960457;28;20027;-89
2021/10/03 08:03:02;;;;;;;4.30;1.60;;;;;;;18.89;67.30;99644.38;4989355;28;20498;-90
2021/10/03 08:05:28;;;;;;;5.18;1.70;;;;;;;18.87;67.42;99640.97;4975214;28;20026;-89
2021/10/03 08:07:53;;;;;;;3.22;1.50;;;;;;;18.86;67.67;99652.31;4971551;28;20050;-90
2021/10/03 08:10:20;;;;;;;3.95;1.63;;;;;;;18.83;67.93;99663.66;4936831;28;20134;-88
2021/10/03 08:12:47;;;;;;;3.47;1.60;;;;;;;18.83;68.07;99673.25;4934138;28;20061;-88
2021/10/03 08:31:32;;;;;;;3.83;1.48;;;;;;;18.78;68.47;99696.88;5013519;28;20054;-87
2021/10/03 08:34:04;;;;;;;3.97;1.38;;;;;;;18.78;68.77;99696.00;4980492;28;20022;-87
2021/10/03 08:39:50;;;;;;;3.70;1.60;;;;;;;18.77;68.85;99704.69;5289739;23;20065;-89
2021/10/03 08:42:17;;;;;;;3.95;1.60;;;;;;;18.80;68.93;99702.03;4992993;28;20050;-89
2021/10/03 08:44:42;;;;;;;4.72;1.35;;;;;;;18.75;68.36;99699.53;4991336;28;20478;-89
2021/10/03 09:32:36;;;;;;;3.33;1.15;;;;;;;18.81;68.81;99725.41;5011567;28;20073;-89
2021/10/03 09:35:01;;;;;;;2.17;1.20;;;;;;;18.80;68.90;99715.06;4989830;28;20450;-89
2021/10/03 09:44:13;;;;;;;2.05;1.20;;;;;;;18.81;68.90;99711.53;5013591;28;20097;-90
2021/10/03 10:00:08;;;;;;;3.75;1.30;;;;;;;18.83;69.17;99726.22;4991539;28;20046;-91
2021/10/03 10:02:33;;;;;;;2.83;1.10;;;;;;;18.84;68.92;99733.16;4986580;28;20071;-91
2021/10/03 10:04:59;;;;;;;3.70;1.25;;;;;;;18.82;68.74;99748.00;4966239;28;20023;-89
2021/10/03 10:07:25;;;;;;;2.33;1.10;;;;;;;18.82;69.04;99747.16;4968719;28;20027;-90
2021/10/03 10:09:52;;;;;;;2.70;1.17;;;;;;;18.82;68.73;99749.75;4969515;28;20027;-90
2021/10/03 10:19:44;;;;;;;2.67;1.48;;;;;;;18.84;68.84;99745.34;4930760;28;20529;-89
2021/10/03 10:22:25;;;;;;;2.33;1.02;;;;;;;18.82;69.06;99750.59;4989969;28;20026;-91
2021/10/03 10:25:17;;;;;;;1.98;0.90;;;;;;;18.81;68.69;99748.03;4987447;28;20078;-91
2021/10/03 10:59:30;;;;;;;12.70;3.60;;;;;;;18.91;68.56;99809.41;5249503;23;20051;-91
2021/10/03 11:05:47;;;;;;;11.40;2.50;;;;;;;18.90;69.41;99836.38;5189145;23;20047;-92
2021/10/03 11:19:10;;;;;;;13.05;2.70;;;;;;;18.82;69.98;99862.69;4955303;28;20614;-89
2021/10/03 11:34:50;;;;;;;8.70;2.53;;;;;;;18.81;69.98;99888.78;5112649;23;20061;-88
2021/10/03 11:43:41;;;;;;;5.63;2.35;;;;;;;18.79;70.11;99888.84;5014330;28;20054;-88
2021/10/03 11:46:22;;;;;;;11.48;2.40;;;;;;;18.80;70.33;99884.47;4992685;28;20034;-88
2021/10/03 11:52:03;;;;;;;6.65;2.15;;;;;;;18.79;70.14;99894.06;5133350;23;20053;-87
2021/10/03 11:54:58;;;;;;;7.13;2.13;;;;;;;18.77;69.89;99898.44;4996598;28;20030;-88
2021/10/03 12:03:49;;;;;;;6.85;2.13;;;;;;;18.79;69.81;99917.53;5102307;23;20458;-88
2021/10/03 12:06:22;;;;;;;7.20;2.00;;;;;;;18.80;69.97;99926.19;4979784;28;20046;-88
2021/10/03 12:22:31;;;;;;;7.47;2.40;;;;;;;18.77;69.90;99942.75;5085227;23;20118;-89
2021/10/03 12:24:56;;;;;;;3.88;1.60;;;;;;;18.77;69.98;99941.84;4984839;28;20033;-88
2021/10/03 12:30:52;;;;;;;5.20;2.05;;;;;;;18.82;69.88;99977.38;4992600;28;20053;-86
2021/10/03 12:33:20;;;;;;;5.20;1.70;;;;;;;18.82;69.42;99981.75;4985534;28;20045;-88
2021/10/03 12:45:52;;;;;;;3.00;1.52;;;;;;;18.84;69.68;99980.78;4989113;28;20050;-92
2021/10/03 12:48:18;;;;;;;5.05;1.70;;;;;;;18.86;69.83;99975.53;4952171;28;20476;-91
2021/10/03 12:50:45;;;;;;;3.22;1.55;;;;;;;18.85;70.02;99971.22;4964892;28;20031;-91
2021/10/03 12:53:11;;;;;;;5.65;1.65;;;;;;;18.82;70.07;99976.53;4983562;28;20063;-91
2021/10/03 12:55:36;;;;;;;3.85;1.42;;;;;;;18.82;69.85;99984.34;4989977;28;20034;-91
2021/10/03 13:11:31;;;;;;;3.85;1.52;;;;;;;18.84;70.39;100034.69;5062541;23;20055;-89
2021/10/03 13:27:07;;;;;;;5.03;1.50;;;;;;;18.80;69.95;100044.31;5238030;23;20125;-90
2021/10/03 13:29:40;;;;;;;4.65;1.10;;;;;;;18.80;70.05;100051.31;4990279;28;20093;-89
2021/10/03 13:32:05;;;;;;;2.88;1.30;;;;;;;18.80;69.30;100048.69;4991072;28;20030;-90
2021/10/03 13:34:46;;;;;;;3.50;1.50;;;;;;;18.82;69.69;100041.69;4961315;28;20053;-90
2021/10/03 13:37:11;;;;;;;3.08;1.42;;;;;;;18.83;69.98;100061.63;4976861;28;20031;-89
2021/10/03 13:39:37;;;;;;;3.33;1.50;;;;;;;18.82;70.01;100068.59;4975021;28;20080;-90
2021/10/03 13:45:34;;;;;;;4.03;1.40;;;;;;;18.84;69.91;100084.22;5040962;23;20059;-89
2021/10/03 14:07:57;;;;;;;2.88;1.25;;;;;;;18.89;69.35;100122.28;5015731;28;20049;-92
2021/10/03 14:10:23;;;;;;;3.38;1.40;;;;;;;18.94;69.27;100137.78;4988568;28;20022;-93
2021/10/03 14:12:49;;;;;;;3.15;1.20;;;;;;;18.95;69.36;100131.69;4952210;29;20071;-90
2021/10/03 14:15:14;;;;;;;6.03;1.20;;;;;;;18.97;69.10;100129.06;4963664;29;20066;-91
2021/10/03 14:17:40;;;;;;;3.00;1.15;;;;;;;18.97;69.11;100123.84;4948162;29;20035;-92
2021/10/03 14:20:07;;;;;;;3.28;1.20;;;;;;;18.99;69.17;100114.22;4943591;29;20030;-92
2021/10/03 14:22:33;;;;;;;6.72;1.17;;;;;;;18.97;69.61;100122.09;4927935;29;20031;-89
2021/10/03 14:24:58;;;;;;;2.35;1.30;;;;;;;18.96;69.33;100135.16;4945850;29;20522;-90
2021/10/03 14:27:24;;;;;;;3.78;1.23;;;;;;;18.96;69.13;100142.97;4929798;29;20035;-92
2021/10/03 14:29:56;;;;;;;3.30;1.20;;;;;;;18.95;69.32;100146.50;4931766;29;20031;-92
2021/10/03 14:32:21;;;;;;;1.70;1.00;;;;;;;18.95;69.84;100157.78;4945500;29;20035;-92
2021/10/03 14:34:46;;;;;;;2.80;1.10;;;;;;;18.94;69.97;100163.88;4945163;29;20090;-90
2021/10/03 14:37:12;;;;;;;2.47;1.15;;;;;;;18.96;69.71;100169.06;4946155;29;20027;-90
2021/10/03 14:39:37;;;;;;;3.05;1.30;;;;;;;18.95;69.62;100175.19;4961663;29;20023;-92
2021/10/03 14:42:04;;;;;;;1.83;1.13;;;;;;;18.97;69.77;100174.25;4930756;29;20114;-92
2021/10/03 14:44:30;;;;;;;2.47;1.00;;;;;;;18.98;69.67;100173.31;4932105;29;20074;-91
2021/10/03 14:46:55;;;;;;;2.03;0.85;;;;;;;18.98;69.88;100186.38;4961524;29;20046;-89
2021/10/03 14:49:21;;;;;;;2.20;1.00;;;;;;;18.97;69.74;100176.00;4946124;29;20034;-89
2021/10/03 14:51:46;;;;;;;4.93;1.25;;;;;;;18.95;69.76;100181.25;4948325;29;20090;-91
2021/10/03 14:54:11;;;;;;;2.67;0.85;;;;;;;18.96;69.80;100192.53;4947519;29;20030;-91
2021/10/03 14:56:37;;;;;;;2.50;1.20;;;;;;;18.96;70.18;100198.59;4962278;29;20409;-89
2021/10/03 14:59:05;;;;;;;2.08;1.20;;;;;;;18.96;70.10;100200.34;4929514;29;20109;-92
2021/10/03 15:01:30;;;;;;;3.83;1.20;;;;;;;18.95;70.04;100204.72;4944999;29;20551;-91
2021/10/03 15:07:19;;;;;;;1.83;0.90;;;;;;;18.96;69.83;100216.84;4966505;29;20075;-92
2021/10/03 15:09:44;;;;;;;3.40;1.17;;;;;;;18.98;69.90;100228.09;4947624;29;20027;-91
2021/10/03 15:12:10;;;;;;;2.13;0.90;;;;;;;19.00;69.66;100221.09;4929730;29;20082;-88
2021/10/03 15:14:36;;;;;;;2.17;1.00;;;;;;;19.01;69.80;100224.53;4943598;29;20075;-91
2021/10/03 15:17:01;;;;;;;3.17;1.00;;;;;;;18.99;69.76;100224.59;4944534;29;20034;-92
2021/10/03 15:19:26;;;;;;;1.75;0.93;;;;;;;19.00;70.18;100236.72;4928314;29;20119;-90
2021/10/03 15:21:52;;;;;;;3.35;1.00;;;;;;;18.99;69.85;100232.41;4945113;29;20484;-89
2021/10/03 15:24:17;;;;;;;1.83;0.90;;;;;;;19.01;70.01;100254.09;4945698;29;20027;-88
2021/10/03 15:26:43;;;;;;;1.73;0.98;;;;;;;18.98;70.06;100261.97;4945681;29;20396;-89
2021/10/03 15:29:09;;;;;;;3.05;1.00;;;;;;;18.98;70.06;100268.97;4945186;29;20023;-90
2021/10/03 15:31:35;;;;;;;2.63;0.90;;;;;;;18.98;69.65;100263.75;4945755;29;20019;-91
2021/10/03 15:34:01;;;;;;;1.30;0.82;;;;;;;18.98;69.90;100269.81;4962206;29;20027;-90
2021/10/03 15:36:27;;;;;;;1.88;0.80;;;;;;;18.98;69.96;100280.22;4929765;29;20040;-89
2021/10/03 15:38:52;;;;;;;2.63;0.93;;;;;;;18.99;70.06;100286.28;4928177;29;20031;-89
2021/10/03 15:41:18;;;;;;;2.33;0.73;;;;;;;18.98;69.95;100301.09;4946119;29;20027;-88
2021/10/03 15:50:12;;;;;;;2.08;0.98;;;;;;;18.97;69.95;100335.06;4969643;29;20087;-90
2021/10/03 15:52:39;;;;;;;3.70;0.90;;;;;;;18.97;70.02;100337.66;4936859;29;20463;-91
2021/10/03 15:55:08;;;;;;;1.95;0.73;;;;;;;18.97;69.96;100345.47;4952412;29;20031;-92
2021/10/03 15:57:35;;;;;;;2.83;0.90;;;;;;;18.95;70.01;100337.69;4948473;29;20543;-91
2021/10/03 16:00:01;;;;;;;4.10;1.10;;;;;;;18.95;69.91;100350.72;4965423;29;20059;-92
2021/10/03 16:02:27;;;;;;;1.92;0.85;;;;;;;18.95;70.49;100336.84;4932617;29;20024;-91
2021/10/03 16:04:52;;;;;;;1.50;0.80;;;;;;;18.95;70.55;100352.47;4936918;29;20038;-92
2021/10/03 16:07:18;;;;;;;3.83;0.95;;;;;;;18.96;70.47;100354.19;4965971;29;20020;-87
2021/10/03 16:09:44;;;;;;;2.40;1.00;;;;;;;18.95;70.48;100355.94;4965739;29;20038;-91
2021/10/03 16:12:09;;;;;;;1.50;0.90;;;;;;;18.95;70.33;100375.94;4933906;29;20039;-92
2021/10/03 16:14:37;;;;;;;2.53;0.82;;;;;;;18.95;70.52;100368.97;4948550;28;20031;-92
2021/10/03 16:17:05;;;;;;;3.17;0.88;;;;;;;18.95;70.46;100375.94;4948481;29;20031;-91
2021/10/03 16:19:30;;;;;;;2.58;0.95;;;;;;;18.94;70.33;100369.00;4952346;29;20055;-91
2021/10/03 16:21:56;;;;;;;2.08;0.70;;;;;;;18.94;70.46;100379.44;4954616;29;20035;-91
2021/10/03 16:24:21;;;;;;;2.95;0.90;;;;;;;18.94;70.62;100375.06;4958334;29;20051;-91
2021/10/03 16:26:47;;;;;;;4.45;1.08;;;;;;;18.93;70.98;100375.13;4957943;29;20075;-89
2021/10/03 16:29:14;;;;;;;1.42;0.82;;;;;;;18.94;70.64;100387.25;4971490;29;20023;-88
2021/10/03 16:35:03;;;;;;;3.10;1.10;;;;;;;18.95;70.53;100407.22;4968587;29;20066;-90
2021/10/03 16:37:28;;;;;;;2.00;0.90;;;;;;;18.94;70.79;100414.16;4964458;29;20134;-91
2021/10/03 16:39:54;;;;;;;3.20;1.00;;;;;;;18.93;70.53;100415.06;4947262;29;20023;-89
2021/10/03 16:42:19;;;;;;;4.63;0.93;;;;;;;18.94;70.68;100408.97;4944436;29;20387;-88
2021/10/03 16:44:45;;;;;;;1.70;1.10;;;;;;;18.93;70.77;100419.44;4941602;29;20467;-85
2021/10/03 16:47:11;;;;;;;2.50;1.02;;;;;;;18.93;71.04;100428.13;4926505;29;20070;-85
2021/10/03 16:49:38;;;;;;;2.38;0.95;;;;;;;18.95;71.20;100428.09;4941616;29;20024;-86
2021/10/03 16:52:04;;;;;;;2.05;1.00;;;;;;;18.94;71.25;100444.59;4926405;29;20097;-78
2021/10/03 16:54:30;;;;;;;3.13;0.98;;;;;;;18.94;71.22;100453.28;4956173;29;20034;-85
2021/10/03 16:56:55;;;;;;;3.83;1.05;;;;;;;18.95;71.66;100454.16;4941933;29;20023;-88
2021/10/03 16:59:21;;;;;;;3.20;0.90;;;;;;;18.94;71.44;100453.28;4958536;29;20027;-86
2021/10/03 17:01:46;;;;;;;2.95;1.13;;;;;;;18.96;71.53;100458.47;4941058;29;20416;-80
2021/10/03 17:04:15;;;;;;;2.33;1.08;;;;;;;18.97;71.69;100487.13;4956275;29;20035;-87
2021/10/03 17:06:41;;;;;;;2.58;0.90;;;;;;;18.95;71.77;100494.13;4939399;29;20055;-88
2021/10/03 17:09:06;;;;;;;2.08;1.00;;;;;;;18.96;71.74;100502.81;4939101;29;20035;-86
2021/10/03 17:11:32;;;;;;;4.35;1.20;;;;;;;18.94;71.61;100507.19;4941141;29;20428;-86
2021/10/03 17:13:58;;;;;;;1.80;1.00;;;;;;;18.93;71.06;100521.97;4925028;29;20031;-84
2021/10/03 17:16:24;;;;;;;4.80;0.93;;;;;;;18.92;71.66;100520.25;4957843;29;20027;-84
2021/10/03 17:18:49;;;;;;;3.88;1.10;;;;;;;18.91;71.74;100524.63;4941666;29;20030;-84
2021/10/03 17:21:14;;;;;;;1.65;0.90;;;;;;;18.91;71.61;100534.19;4924952;29;20089;-86
2021/10/03 17:23:40;;;;;;;2.05;0.80;;;;;;;18.91;71.56;100539.41;4924679;29;20039;-85
2021/10/03 17:26:05;;;;;;;3.20;1.33;;;;;;;18.90;71.53;100540.28;4924464;29;20115;-82
2021/10/03 17:28:31;;;;;;;3.17;0.90;;;;;;;18.88;71.24;100542.94;4943076;29;20027;-85
2021/10/03 17:30:56;;;;;;;3.80;0.90;;;;;;;18.88;71.50;100552.50;4960047;29;20023;-85
2021/10/03 17:33:22;;;;;;;1.42;0.90;;;;;;;18.89;71.81;100556.81;4961336;29;20115;-84
2021/10/03 17:35:47;;;;;;;3.95;1.00;;;;;;;18.88;71.86;100560.34;4961414;29;20118;-82
2021/10/03 17:38:13;;;;;;;1.45;0.70;;;;;;;18.87;71.67;100562.06;4928473;29;20034;-85
2021/10/03 17:40:38;;;;;;;2.10;1.00;;;;;;;18.85;71.70;100553.41;4959773;29;20114;-84
2021/10/03 17:43:04;;;;;;;2.33;1.00;;;;;;;18.84;71.73;100556.91;4943571;29;20082;-81
2021/10/03 17:45:29;;;;;;;3.50;1.00;;;;;;;18.86;71.79;100577.75;4960046;29;20027;-82
2021/10/03 17:47:56;;;;;;;4.18;0.80;;;;;;;18.85;71.97;100592.50;4959835;29;20030;-82
2021/10/03 17:50:23;;;;;;;1.52;0.80;;;;;;;18.84;71.25;100598.63;4960865;29;20024;-83
2021/10/03 17:52:49;;;;;;;2.47;0.90;;;;;;;18.85;71.63;100578.63;4945154;29;20028;-85
2021/10/03 17:55:15;;;;;;;2.47;0.90;;;;;;;18.83;71.34;100580.41;4960716;29;20498;-84
2021/10/03 17:57:42;;;;;;;2.15;0.80;;;;;;;18.84;71.61;100587.34;4944294;29;20039;-82
2021/10/03 18:00:09;;;;;;;2.28;0.90;;;;;;;18.83;71.10;100591.69;4944836;29;20051;-84
2021/10/03 18:02:35;;;;;;;1.15;0.73;;;;;;;18.84;71.54;100595.16;4946237;29;20031;-85
2021/10/03 18:05:01;;;;;;;3.70;0.80;;;;;;;18.84;71.24;100605.59;4946460;29;20035;-86
2021/10/03 18:07:26;;;;;;;4.15;0.95;;;;;;;18.83;71.41;100609.06;4930405;29;20046;-82
2021/10/03 18:09:52;;;;;;;2.25;0.77;;;;;;;18.83;71.54;100617.75;4946044;29;20023;-83
2021/10/03 18:12:17;;;;;;;2.13;0.80;;;;;;;18.83;71.05;100611.69;4946557;29;20019;-84
2021/10/03 18:14:42;;;;;;;1.50;0.90;;;;;;;18.82;71.21;100629.09;4949350;29;20035;-85
2021/10/03 18:17:08;;;;;;;4.25;1.08;;;;;;;18.82;70.91;100628.22;4936257;29;20023;-85
2021/10/03 18:19:33;;;;;;;2.90;0.90;;;;;;;18.82;70.81;100636.91;4948945;29;20395;-84
2021/10/03 18:21:59;;;;;;;1.70;0.80;;;;;;;18.82;71.19;100643.88;4935742;29;20038;-84
2021/10/03 18:24:28;;;;;;;1.90;1.00;;;;;;;18.81;71.06;100658.63;4953284;29;20173;-83
2021/10/03 18:26:54;;;;;;;2.33;0.93;;;;;;;18.81;71.28;100650.81;4950251;29;20023;-86
2021/10/03 18:29:19;;;;;;;3.70;0.95;;;;;;;18.81;70.63;100655.16;4964283;29;20042;-86
2021/10/03 18:31:45;;;;;;;2.60;1.00;;;;;;;18.80;70.84;100643.88;4949473;29;20114;-91
2021/10/03 18:34:11;;;;;;;1.90;0.90;;;;;;;18.82;71.20;100649.09;4953269;29;20027;-92
2021/10/03 18:36:37;;;;;;;2.65;1.00;;;;;;;18.81;70.84;100661.25;4952460;29;20019;-89
2021/10/03 18:39:04;;;;;;;1.70;1.00;;;;;;;18.80;70.75;100669.97;4946387;29;20027;-85
2021/10/03 18:41:31;;;;;;;1.15;0.77;;;;;;;18.81;70.75;100663.00;4945763;29;20027;-82
2021/10/03 18:43:56;;;;;;;2.35;0.90;;;;;;;18.80;70.65;100679.53;4962810;29;20377;-84
2021/10/03 18:46:22;;;;;;;2.22;0.77;;;;;;;18.80;70.80;100690.81;4964580;29;20106;-83
2021/10/03 18:48:47;;;;;;;2.20;0.90;;;;;;;18.80;70.81;100684.75;4962466;29;20031;-86
2021/10/03 18:51:14;;;;;;;4.15;1.00;;;;;;;18.79;70.52;100691.72;4961763;29;20034;-86
2021/10/03 18:53:40;;;;;;;2.08;0.90;;;;;;;18.80;70.57;100705.59;4966708;29;20148;-88
2021/10/03 19:07:42;;;;;;;1.98;0.63;;;;;;;18.80;70.68;100732.53;4974467;28;20078;-88
2021/10/03 19:10:09;;;;;;;2.72;1.00;;;;;;;18.80;70.82;100740.34;4958378;29;20040;-87
2021/10/03 19:12:34;;;;;;;3.17;1.10;;;;;;;18.78;70.37;100747.34;4938008;29;20040;-88
2021/10/03 19:15:02;;;;;;;2.40;1.08;;;;;;;18.77;70.49;100740.38;4971176;29;20027;-87
2021/10/03 19:17:51;;;;;;;3.75;0.98;;;;;;;18.79;70.33;100763.81;4953437;29;20114;-86
2021/10/03 19:23:39;;;;;;;1.23;0.80;;;;;;;18.79;70.14;100774.25;4972975;29;20034;-86
2021/10/03 19:26:05;;;;;;;4.22;0.77;;;;;;;18.79;70.51;100777.75;4953144;29;20080;-86
2021/10/03 19:28:33;;;;;;;1.67;0.93;;;;;;;18.79;70.28;100787.28;4944225;29;20027;-86
2021/10/03 19:31:01;;;;;;;2.03;0.80;;;;;;;18.78;70.25;100788.19;4939348;29;20035;-85
2021/10/03 19:33:27;;;;;;;1.88;0.85;;;;;;;18.79;70.05;100784.69;4957866;29;20090;-86
2021/10/03 19:35:58;;;;;;;1.85;0.88;;;;;;;18.77;70.31;100782.09;4952598;29;20468;-89
2021/10/03 19:48:30;;;;;;;1.60;0.82;;;;;;;18.78;70.20;100806.44;4971227;29;20046;-85
2021/10/03 19:50:55;;;;;;;2.00;1.02;;;;;;;18.76;70.31;100787.31;4949729;29;20384;-87
2021/10/03 19:53:36;;;;;;;1.35;0.70;;;;;;;18.76;70.08;100806.41;4947968;29;20039;-86
2021/10/03 19:56:01;;;;;;;1.83;0.85;;;;;;;18.77;69.97;100797.72;4958711;29;20019;-83
2021/10/03 19:58:27;;;;;;;1.63;0.65;;;;;;;18.75;70.08;100799.50;4958069;29;20031;-84
2021/10/03 20:00:52;;;;;;;1.27;0.75;;;;;;;18.76;70.18;100810.78;4949838;29;20027;-86
2021/10/03 20:03:21;;;;;;;4.30;0.90;;;;;;;18.78;70.03;100812.50;4950633;29;20051;-87
2021/10/03 20:05:46;;;;;;;1.48;0.85;;;;;;;18.76;70.05;100808.19;4952292;29;20039;-85
2021/10/03 20:08:12;;;;;;;1.90;0.90;;;;;;;18.76;70.08;100802.97;4935218;29;20109;-86
2021/10/03 20:10:37;;;;;;;2.92;0.70;;;;;;;18.75;69.64;100806.44;4953255;29;20031;-88
2021/10/03 20:13:03;;;;;;;3.15;0.80;;;;;;;18.75;70.02;100811.66;4939527;29;20023;-86
2021/10/03 20:18:51;;;;;;;1.80;0.82;;;;;;;18.75;69.78;100803.81;4968752;29;20054;-85
2021/10/03 20:21:17;;;;;;;1.90;0.73;;;;;;;18.75;69.71;100811.66;4966143;29;20027;-87
2021/10/03 20:23:42;;;;;;;1.95;0.88;;;;;;;18.75;69.88;100819.47;4951320;29;20058;-89
2021/10/03 20:26:08;;;;;;;1.23;0.70;;;;;;;18.77;69.71;100838.56;4938823;29;20027;-89
2021/10/03 20:28:34;;;;;;;1.65;0.90;;;;;;;18.76;69.90;100821.22;4953252;29;20027;-88
2021/10/03 20:31:00;;;;;;;2.28;0.80;;;;;;;18.76;69.73;100836.84;4953302;29;20054;-88
2021/10/03 20:33:25;;;;;;;1.92;0.77;;;;;;;18.75;69.77;100841.22;4951531;29;20035;-89
2021/10/03 20:35:51;;;;;;;1.88;0.80;;;;;;;18.75;69.60;100848.16;4932840;29;20118;-87
2021/10/03 20:38:16;;;;;;;1.92;0.70;;;;;;;18.75;69.90;100861.19;4936724;29;20046;-89
2021/10/03 20:40:43;;;;;;;1.33;0.68;;;;;;;18.76;69.46;100862.91;4938455;29;20122;-90
2021/10/03 20:49:41;;;;;;;0.88;0.60;;;;;;;18.75;69.47;100884.63;5078320;23;20085;-88
2021/10/03 20:52:07;;;;;;;0.88;0.60;;;;;;;18.76;69.74;100895.06;4971573;28;20031;-87
2021/10/03 20:54:32;;;;;;;1.70;0.70;;;;;;;18.76;69.46;100896.81;4961724;28;20027;-88
2021/10/03 20:56:58;;;;;;;1.63;0.80;;;;;;;18.74;69.42;100893.34;4962417;28;20102;-89
2021/10/03 20:59:23;;;;;;;0.88;0.60;;;;;;;18.76;69.37;100899.41;4977928;28;20054;-88
2021/10/03 21:01:49;;;;;;;1.38;0.70;;;;;;;18.74;69.62;100909.84;4960065;28;20030;-90
2021/10/03 21:07:38;;;;;;;5.85;0.70;;;;;;;18.75;69.35;100908.09;4992564;28;20066;-88
2021/10/03 21:16:55;;;;;;;3.60;0.73;;;;;;;18.64;70.15;100906.53;4986901;28;20046;-86
2021/10/03 21:19:40;;;;;;;3.30;1.00;;;;;;;18.64;69.62;100914.34;4975629;28;20051;-86
2021/10/03 21:22:07;;;;;;;3.67;0.77;;;;;;;18.62;69.73;100903.06;4974096;28;20049;-87
2021/10/03 21:24:33;;;;;;;1.88;0.90;;;;;;;18.64;69.91;100906.53;4976195;28;20027;-86
2021/10/03 21:27:00;;;;;;;4.15;0.93;;;;;;;18.65;69.78;100912.59;4977172;28;20043;-87
2021/10/03 21:32:47;;;;;;;3.13;0.85;;;;;;;18.63;69.88;100914.34;4995054;28;20078;-87
2021/10/03 21:38:35;;;;;;;3.10;0.90;;;;;;;18.61;69.82;100914.34;4994694;28;20062;-86
2021/10/03 21:44:22;;;;;;;3.78;1.05;;;;;;;18.61;69.79;100905.69;4996607;28;20070;-88
2021/10/03 21:46:49;;;;;;;3.92;1.10;;;;;;;18.63;69.89;100919.56;4962713;28;20094;-89
2021/10/03 21:49:15;;;;;;;2.10;0.90;;;;;;;18.61;69.97;100930.00;4961901;28;20030;-88
2021/10/03 21:51:40;;;;;;;2.20;0.80;;;;;;;18.63;70.30;100928.25;4993584;28;20058;-88
2021/10/03 21:54:06;;;;;;;3.88;0.90;;;;;;;18.62;69.88;100930.88;4959508;28;20038;-86
2021/10/03 21:56:33;;;;;;;3.67;0.70;;;;;;;18.61;69.71;100929.16;4989642;28;20480;-87
2021/10/03 22:02:01;;;;;;;4.95;1.10;;;;;;;18.61;69.47;100939.56;5317669;23;20047;-87
2021/10/03 22:14:16;;;;;;;5.43;0.90;;;;;;;18.60;69.77;100940.47;4996770;28;20053;-87
2021/10/03 22:45:49;;;;;;;1.83;0.70;;;;;;;18.59;69.72;100983.03;5526117;23;20045;-87
2021/10/03 23:06:01;;;;;;;1.65;0.65;;;;;;;18.55;69.21;100999.56;5363758;23;20058;-85
2021/10/03 23:36:28;;;;;;;1.13;0.50;;;;;;;18.53;69.04;101028.28;5203195;23;20049;-86
